sensor_id;sensor_type;location;lat;lon;timestamp;pressure;altitude;pressure_sealevel;temperature;humidity
75640;BME280;64233;51.486;6.332;2023-03-23T00:00:22;100050.28;;;11.52;100.00
75640;BME280;64233;51.486;6.332;2023-03-23T00:02:47;100042.00;;;11.28;100.00
75640;BME280;64233;51.486;6.332;2023-03-23T00:05:13;100045.25;;;11.30;100.00
75640;BME280;64233;51.486;6.332;2023-03-23T00:07:38;100049.16;;;11.59;100.00
75640;BME280;64233;51.486;6.332;2023-03-23T00:10:09;100048.72;;;11.41;100.00
75640;BME280;64233;51.486;6.332;2023-03-23T00:12:35;100049.03;;;11.24;100.00
75640;BME280;64233;51.486;6.332;2023-03-23T00:15:01;100045.50;;;11.24;100.00
75640;BME280;64233;51.486;6.332;2023-03-23T00:17:28;100029.34;;;11.44;100.00
75640;BME280;64233;51.486;6.332;2023-03-23T00:19:54;100034.72;;;11.44;100.00
75640;BME280;64233;51.486;6.332;2023-03-23T00:22:19;100040.34;;;11.48;100.00
75640;BME280;64233;51.486;6.332;2023-03-23T00:24:52;100034.22;;;11.32;100.00
75640;BME280;64233;51.486;6.332;2023-03-23T00:27:24;100041.69;;;11.45;100.00
75640;BME280;64233;51.486;6.332;2023-03-23T00:29:50;100048.66;;;11.46;100.00
75640;BME280;64233;51.486;6.332;2023-03-23T00:32:23;100033.88;;;11.49;100.00
75640;BME280;64233;51.486;6.332;2023-03-23T00:34:56;100024.28;;;11.27;100.00
75640;BME280;64233;51.486;6.332;2023-03-23T00:37:23;100034.22;;;11.37;100.00
75640;BME280;64233;51.486;6.332;2023-03-23T00:39:49;100019.63;;;11.53;100.00
75640;BME280;64233;51.486;6.332;2023-03-23T00:42:16;100030.41;;;11.38;100.00
75640;BME280;64233;51.486;6.332;2023-03-23T00:44:42;100017.53;;;11.35;100.00
75640;BME280;64233;51.486;6.332;2023-03-23T00:47:09;100025.88;;;11.39;100.00
75640;BME280;64233;51.486;6.332;2023-03-23T00:49:35;100009.41;;;11.56;100.00
75640;BME280;64233;51.486;6.332;2023-03-23T00:52:01;100031.47;;;11.42;100.00
75640;BME280;64233;51.486;6.332;2023-03-23T00:54:28;100033.66;;;11.40;100.00
75640;BME280;64233;51.486;6.332;2023-03-23T00:56:54;100036.09;;;11.26;100.00
75640;BME280;64233;51.486;6.332;2023-03-23T00:59:21;100033.66;;;11.35;100.00
75640;BME280;64233;51.486;6.332;2023-03-23T01:01:47;100033.09;;;11.38;100.00
75640;BME280;64233;51.486;6.332;2023-03-23T01:04:13;100030.69;;;11.42;100.00
75640;BME280;64233;51.486;6.332;2023-03-23T01:06:41;100025.25;;;11.52;100.00
75640;BME280;64233;51.486;6.332;2023-03-23T01:09:11;100011.88;;;11.36;100.00
75640;BME280;64233;51.486;6.332;2023-03-23T01:11:42;100005.44;;;11.43;100.00
75640;BME280;64233;51.486;6.332;2023-03-23T01:14:08;100004.09;;;11.40;100.00
75640;BME280;64233;51.486;6.332;2023-03-23T01:16:34;99998.19;;;11.38;100.00
75640;BME280;64233;51.486;6.332;2023-03-23T01:18:59;99989.59;;;11.36;100.00
75640;BME280;64233;51.486;6.332;2023-03-23T01:21:25;99993.34;;;11.35;100.00
75640;BME280;64233;51.486;6.332;2023-03-23T01:23:50;99980.75;;;11.30;100.00
75640;BME280;64233;51.486;6.332;2023-03-23T01:26:19;99995.53;;;11.33;100.00
75640;BME280;64233;51.486;6.332;2023-03-23T01:28:46;100010.31;;;11.35;100.00
75640;BME280;64233;51.486;6.332;2023-03-23T01:31:17;100008.69;;;11.34;100.00
75640;BME280;64233;51.486;6.332;2023-03-23T01:33:43;99999.00;;;11.39;100.00
75640;BME280;64233;51.486;6.332;2023-03-23T01:36:17;100006.03;;;11.19;100.00
75640;BME280;64233;51.486;6.332;2023-03-23T01:38:44;99980.28;;;11.13;100.00
75640;BME280;64233;51.486;6.332;2023-03-23T01:41:11;99985.63;;;11.23;100.00
75640;BME280;64233;51.486;6.332;2023-03-23T01:43:53;99976.22;;;11.26;100.00
75640;BME280;64233;51.486;6.332;2023-03-23T01:46:18;99985.56;;;11.39;100.00
75640;BME280;64233;51.486;6.332;2023-03-23T01:48:43;99988.31;;;11.23;100.00
75640;BME280;64233;51.486;6.332;2023-03-23T01:51:19;99980.69;;;11.46;100.00
75640;BME280;64233;51.486;6.332;2023-03-23T01:53:48;99974.53;;;11.40;100.00
75640;BME280;64233;51.486;6.332;2023-03-23T01:56:19;99981.75;;;11.45;100.00
75640;BME280;64233;51.486;6.332;2023-03-23T01:58:45;99965.31;;;11.57;100.00
75640;BME280;64233;51.486;6.332;2023-03-23T02:01:12;99969.69;;;11.42;100.00
75640;BME280;64233;51.486;6.332;2023-03-23T02:03:41;99961.94;;;11.35;100.00
75640;BME280;64233;51.486;6.332;2023-03-23T02:06:07;99951.34;;;11.54;100.00
75640;BME280;64233;51.486;6.332;2023-03-23T02:08:33;99963.50;;;11.42;100.00
75640;BME280;64233;51.486;6.332;2023-03-23T02:10:59;99962.41;;;11.48;100.00
75640;BME280;64233;51.486;6.332;2023-03-23T02:13:27;99965.91;;;11.48;100.00
75640;BME280;64233;51.486;6.332;2023-03-23T02:16:20;99974.00;;;11.38;100.00
75640;BME280;64233;51.486;6.332;2023-03-23T02:24:19;99955.72;;;11.40;100.00
75640;BME280;64233;51.486;6.332;2023-03-23T02:26:58;99950.66;;;11.33;100.00
75640;BME280;64233;51.486;6.332;2023-03-23T02:32:10;99943.69;;;11.27;100.00
75640;BME280;64233;51.486;6.332;2023-03-23T02:34:58;99939.69;;;11.19;100.00
75640;BME280;64233;51.486;6.332;2023-03-23T02:37:46;99934.31;;;11.19;100.00
75640;BME280;64233;51.486;6.332;2023-03-23T02:40:18;99933.53;;;11.14;100.00
75640;BME280;64233;51.486;6.332;2023-03-23T02:42:48;99936.72;;;11.21;100.00
75640;BME280;64233;51.486;6.332;2023-03-23T02:45:15;99912.81;;;11.19;100.00
75640;BME280;64233;51.486;6.332;2023-03-23T02:47:43;99921.44;;;11.22;100.00
75640;BME280;64233;51.486;6.332;2023-03-23T02:50:13;99906.91;;;11.23;100.00
75640;BME280;64233;51.486;6.332;2023-03-23T02:52:41;99921.09;;;11.33;100.00
75640;BME280;64233;51.486;6.332;2023-03-23T02:55:09;99916.00;;;11.32;100.00
75640;BME280;64233;51.486;6.332;2023-03-23T02:57:37;99924.31;;;11.35;100.00
75640;BME280;64233;51.486;6.332;2023-03-23T03:00:04;99924.34;;;11.30;100.00
75640;BME280;64233;51.486;6.332;2023-03-23T03:02:34;99921.38;;;11.27;100.00
75640;BME280;64233;51.486;6.332;2023-03-23T03:05:26;99912.28;;;11.23;100.00
75640;BME280;64233;51.486;6.332;2023-03-23T03:08:16;99901.50;;;11.28;100.00
75640;BME280;64233;51.486;6.332;2023-03-23T03:11:09;99899.94;;;11.16;100.00
75640;BME280;64233;51.486;6.332;2023-03-23T03:13:46;99907.44;;;11.25;100.00
75640;BME280;64233;51.486;6.332;2023-03-23T03:21:27;99914.94;;;11.23;100.00
75640;BME280;64233;51.486;6.332;2023-03-23T03:23:56;99927.34;;;11.18;100.00
75640;BME280;64233;51.486;6.332;2023-03-23T03:26:24;99918.75;;;11.22;100.00
75640;BME280;64233;51.486;6.332;2023-03-23T03:28:52;99911.19;;;11.29;100.00
75640;BME280;64233;51.486;6.332;2023-03-23T03:31:21;99923.84;;;11.18;100.00
75640;BME280;64233;51.486;6.332;2023-03-23T03:33:47;99915.03;;;11.07;100.00
75640;BME280;64233;51.486;6.332;2023-03-23T03:36:26;99896.94;;;11.28;100.00
75640;BME280;64233;51.486;6.332;2023-03-23T03:38:53;99913.28;;;11.37;100.00
75640;BME280;64233;51.486;6.332;2023-03-23T03:41:20;99920.31;;;11.23;100.00
75640;BME280;64233;51.486;6.332;2023-03-23T03:43:45;99919.19;;;11.39;100.00
75640;BME280;64233;51.486;6.332;2023-03-23T03:46:11;99912.25;;;11.33;100.00
75640;BME280;64233;51.486;6.332;2023-03-23T03:48:36;99911.47;;;11.27;100.00
75640;BME280;64233;51.486;6.332;2023-03-23T03:51:02;99911.25;;;11.18;100.00
75640;BME280;64233;51.486;6.332;2023-03-23T03:53:28;99907.66;;;11.33;100.00
75640;BME280;64233;51.486;6.332;2023-03-23T03:55:53;99922.38;;;11.46;100.00
75640;BME280;64233;51.486;6.332;2023-03-23T03:58:28;99918.13;;;11.35;100.00
75640;BME280;64233;51.486;6.332;2023-03-23T04:00:59;99924.03;;;11.37;100.00
75640;BME280;64233;51.486;6.332;2023-03-23T04:03:25;99917.28;;;11.40;100.00
75640;BME280;64233;51.486;6.332;2023-03-23T04:05:52;99911.09;;;11.44;100.00
75640;BME280;64233;51.486;6.332;2023-03-23T04:08:17;99899.50;;;11.49;100.00
75640;BME280;64233;51.486;6.332;2023-03-23T04:10:44;99921.38;;;11.32;100.00
75640;BME280;64233;51.486;6.332;2023-03-23T04:13:09;99920.53;;;11.36;100.00
75640;BME280;64233;51.486;6.332;2023-03-23T04:15:34;99921.34;;;11.37;100.00
75640;BME280;64233;51.486;6.332;2023-03-23T04:18:00;99928.38;;;11.28;100.00
75640;BME280;64233;51.486;6.332;2023-03-23T04:20:25;99919.75;;;11.31;100.00
75640;BME280;64233;51.486;6.332;2023-03-23T04:22:51;99923.84;;;11.23;100.00
75640;BME280;64233;51.486;6.332;2023-03-23T04:25:20;99917.91;;;11.21;100.00
75640;BME280;64233;51.486;6.332;2023-03-23T04:27:51;99910.63;;;11.32;100.00
75640;BME280;64233;51.486;6.332;2023-03-23T04:30:22;99923.56;;;11.25;100.00
75640;BME280;64233;51.486;6.332;2023-03-23T04:32:51;99907.94;;;11.27;100.00
75640;BME280;64233;51.486;6.332;2023-03-23T04:35:19;99928.66;;;11.26;100.00
75640;BME280;64233;51.486;6.332;2023-03-23T04:37:45;99925.16;;;11.26;100.00
75640;BME280;64233;51.486;6.332;2023-03-23T04:40:11;99934.88;;;11.16;100.00
75640;BME280;64233;51.486;6.332;2023-03-23T04:42:38;99943.16;;;11.25;100.00
75640;BME280;64233;51.486;6.332;2023-03-23T04:45:06;99943.72;;;11.17;100.00
75640;BME280;64233;51.486;6.332;2023-03-23T04:47:33;99946.44;;;11.12;100.00
75640;BME280;64233;51.486;6.332;2023-03-23T04:50:04;99949.13;;;11.07;100.00
75640;BME280;64233;51.486;6.332;2023-03-23T04:52:31;99949.91;;;11.17;100.00
75640;BME280;64233;51.486;6.332;2023-03-23T04:54:57;99946.13;;;11.24;100.00
75640;BME280;64233;51.486;6.332;2023-03-23T04:57:23;99948.59;;;11.10;100.00
75640;BME280;64233;51.486;6.332;2023-03-23T04:59:48;99954.44;;;11.22;100.00
75640;BME280;64233;51.486;6.332;2023-03-23T05:02:14;99946.34;;;11.37;100.00
75640;BME280;64233;51.486;6.332;2023-03-23T05:04:40;99961.44;;;11.18;100.00
75640;BME280;64233;51.486;6.332;2023-03-23T05:07:08;99960.16;;;11.10;100.00
75640;BME280;64233;51.486;6.332;2023-03-23T05:09:35;99958.75;;;11.18;100.00
75640;BME280;64233;51.486;6.332;2023-03-23T05:12:08;99958.22;;;11.21;100.00
75640;BME280;64233;51.486;6.332;2023-03-23T05:14:34;99972.22;;;11.13;100.00
75640;BME280;64233;51.486;6.332;2023-03-23T05:17:00;99968.47;;;11.09;100.00
75640;BME280;64233;51.486;6.332;2023-03-23T05:19:25;99976.75;;;11.23;100.00
75640;BME280;64233;51.486;6.332;2023-03-23T05:21:50;99979.47;;;11.17;100.00
75640;BME280;64233;51.486;6.332;2023-03-23T05:24:15;99966.81;;;11.23;100.00
75640;BME280;64233;51.486;6.332;2023-03-23T05:26:41;99970.03;;;11.25;100.00
75640;BME280;64233;51.486;6.332;2023-03-23T05:29:06;99963.84;;;11.25;100.00
75640;BME280;64233;51.486;6.332;2023-03-23T05:31:31;99970.09;;;11.05;100.00
75640;BME280;64233;51.486;6.332;2023-03-23T05:33:57;99956.91;;;11.18;100.00
75640;BME280;64233;51.486;6.332;2023-03-23T05:36:22;99967.59;;;11.24;100.00
75640;BME280;64233;51.486;6.332;2023-03-23T05:38:48;99958.75;;;11.23;100.00
75640;BME280;64233;51.486;6.332;2023-03-23T05:41:14;99973.50;;;11.31;100.00
75640;BME280;64233;51.486;6.332;2023-03-23T05:43:39;99968.97;;;11.21;100.00
75640;BME280;64233;51.486;6.332;2023-03-23T05:46:05;99957.13;;;11.27;100.00
75640;BME280;64233;51.486;6.332;2023-03-23T05:48:30;99957.13;;;11.27;100.00
75640;BME280;64233;51.486;6.332;2023-03-23T05:50:56;99960.13;;;11.15;100.00
75640;BME280;64233;51.486;6.332;2023-03-23T05:53:21;99977.84;;;11.22;100.00
75640;BME280;64233;51.486;6.332;2023-03-23T05:55:48;99975.16;;;11.22;100.00
75640;BME280;64233;51.486;6.332;2023-03-23T05:58:13;99961.72;;;11.11;100.00
75640;BME280;64233;51.486;6.332;2023-03-23T06:00:38;99974.59;;;11.19;100.00
75640;BME280;64233;51.486;6.332;2023-03-23T06:03:04;99974.66;;;11.09;100.00
75640;BME280;64233;51.486;6.332;2023-03-23T06:05:29;99969.22;;;11.19;100.00
75640;BME280;64233;51.486;6.332;2023-03-23T06:07:55;99977.34;;;11.09;100.00
75640;BME280;64233;51.486;6.332;2023-03-23T06:10:20;99967.66;;;11.18;100.00
75640;BME280;64233;51.486;6.332;2023-03-23T06:12:46;99975.38;;;11.25;100.00
75640;BME280;64233;51.486;6.332;2023-03-23T06:15:12;99972.69;;;11.35;100.00
75640;BME280;64233;51.486;6.332;2023-03-23T06:17:37;99971.09;;;11.29;100.00
75640;BME280;64233;51.486;6.332;2023-03-23T06:20:04;99971.09;;;11.29;100.00
75640;BME280;64233;51.486;6.332;2023-03-23T06:22:36;99977.53;;;11.28;100.00
75640;BME280;64233;51.486;6.332;2023-03-23T06:25:04;99992.84;;;11.23;100.00
75640;BME280;64233;51.486;6.332;2023-03-23T06:27:30;99982.94;;;11.18;100.00
75640;BME280;64233;51.486;6.332;2023-03-23T06:29:55;99978.63;;;11.17;100.00
75640;BME280;64233;51.486;6.332;2023-03-23T06:32:22;99974.00;;;11.38;100.00
75640;BME280;64233;51.486;6.332;2023-03-23T06:34:47;99990.97;;;11.28;100.00
75640;BME280;64233;51.486;6.332;2023-03-23T06:37:13;99998.50;;;11.26;100.00
75640;BME280;64233;51.486;6.332;2023-03-23T06:39:38;100003.31;;;11.29;100.00
75640;BME280;64233;51.486;6.332;2023-03-23T06:42:04;100007.06;;;11.28;100.00
75640;BME280;64233;51.486;6.332;2023-03-23T06:44:30;100002.75;;;11.32;100.00
75640;BME280;64233;51.486;6.332;2023-03-23T06:46:55;100012.72;;;11.32;100.00
75640;BME280;64233;51.486;6.332;2023-03-23T06:49:21;100024.53;;;11.36;100.00
75640;BME280;64233;51.486;6.332;2023-03-23T06:51:47;100012.16;;;11.40;100.00
75640;BME280;64233;51.486;6.332;2023-03-23T06:54:12;100016.75;;;11.29;100.00
75640;BME280;64233;51.486;6.332;2023-03-23T06:56:37;100020.00;;;11.31;100.00
75640;BME280;64233;51.486;6.332;2023-03-23T06:59:03;100024.53;;;11.41;100.00
75640;BME280;64233;51.486;6.332;2023-03-23T07:01:28;100028.28;;;11.40;100.00
75640;BME280;64233;51.486;6.332;2023-03-23T07:03:55;100027.44;;;11.45;100.00
75640;BME280;64233;51.486;6.332;2023-03-23T07:06:21;100038.75;;;11.42;100.00
75640;BME280;64233;51.486;6.332;2023-03-23T07:08:46;100032.59;;;11.41;100.00
75640;BME280;64233;51.486;6.332;2023-03-23T07:11:12;100032.81;;;11.45;100.00
75640;BME280;64233;51.486;6.332;2023-03-23T07:13:38;100032.81;;;11.45;100.00
75640;BME280;64233;51.486;6.332;2023-03-23T07:16:07;100033.63;;;11.45;100.00
75640;BME280;64233;51.486;6.332;2023-03-23T07:18:33;100033.38;;;11.47;100.00
75640;BME280;64233;51.486;6.332;2023-03-23T07:20:58;100038.19;;;11.45;100.00
75640;BME280;64233;51.486;6.332;2023-03-23T07:23:24;100037.13;;;11.46;100.00
75640;BME280;64233;51.486;6.332;2023-03-23T07:25:50;100029.84;;;11.46;100.00
75640;BME280;64233;51.486;6.332;2023-03-23T07:28:15;100033.31;;;11.52;100.00
75640;BME280;64233;51.486;6.332;2023-03-23T07:30:41;100027.72;;;11.48;100.00
75640;BME280;64233;51.486;6.332;2023-03-23T07:33:08;100042.22;;;11.52;100.00
75640;BME280;64233;51.486;6.332;2023-03-23T07:35:34;100033.66;;;11.40;100.00
75640;BME280;64233;51.486;6.332;2023-03-23T07:38:00;100039.53;;;11.42;100.00
75640;BME280;64233;51.486;6.332;2023-03-23T07:40:26;100027.44;;;11.50;100.00
75640;BME280;64233;51.486;6.332;2023-03-23T07:42:54;100035.50;;;11.45;100.00
75640;BME280;64233;51.486;6.332;2023-03-23T07:45:20;100041.72;;;11.40;100.00
75640;BME280;64233;51.486;6.332;2023-03-23T07:47:46;100037.13;;;11.41;100.00
75640;BME280;64233;51.486;6.332;2023-03-23T07:50:11;100040.94;;;11.34;100.00
75640;BME280;64233;51.486;6.332;2023-03-23T07:52:37;100037.16;;;11.35;100.00
75640;BME280;64233;51.486;6.332;2023-03-23T07:55:04;100031.78;;;11.35;100.00
75640;BME280;64233;51.486;6.332;2023-03-23T07:57:30;100036.63;;;11.39;100.00
75640;BME280;64233;51.486;6.332;2023-03-23T07:59:56;100043.34;;;11.36;100.00
75640;BME280;64233;51.486;6.332;2023-03-23T08:02:22;100026.66;;;11.44;100.00
75640;BME280;64233;51.486;6.332;2023-03-23T08:04:47;100039.31;;;11.28;100.00
75640;BME280;64233;51.486;6.332;2023-03-23T08:07:14;100046.84;;;11.31;100.00
75640;BME280;64233;51.486;6.332;2023-03-23T08:09:40;100046.84;;;11.31;100.00
75640;BME280;64233;51.486;6.332;2023-03-23T08:12:06;100047.38;;;11.28;100.00
75640;BME280;64233;51.486;6.332;2023-03-23T08:14:31;100051.13;;;11.37;100.00
75640;BME280;64233;51.486;6.332;2023-03-23T08:16:57;100047.66;;;11.32;100.00
75640;BME280;64233;51.486;6.332;2023-03-23T08:19:23;100048.16;;;11.44;100.00
75640;BME280;64233;51.486;6.332;2023-03-23T08:21:49;100047.59;;;11.47;100.00
75640;BME280;64233;51.486;6.332;2023-03-23T08:24:15;100043.00;;;11.48;100.00
75640;BME280;64233;51.486;6.332;2023-03-23T08:26:41;100055.94;;;11.46;100.00
75640;BME280;64233;51.486;6.332;2023-03-23T08:29:07;100050.53;;;11.51;100.00
75640;BME280;64233;51.486;6.332;2023-03-23T08:31:33;100054.03;;;11.51;100.00
75640;BME280;64233;51.486;6.332;2023-03-23T08:34:01;100061.56;;;11.49;100.00
75640;BME280;64233;51.486;6.332;2023-03-23T08:36:27;100048.72;;;11.41;100.00
75640;BME280;64233;51.486;6.332;2023-03-23T08:38:53;100040.06;;;11.49;100.00
75640;BME280;64233;51.486;6.332;2023-03-23T08:41:18;100043.00;;;11.48;100.00
75640;BME280;64233;51.486;6.332;2023-03-23T08:43:44;100062.94;;;11.42;100.00
75640;BME280;64233;51.486;6.332;2023-03-23T08:46:10;100143.06;;;11.24;100.00
75640;BME280;64233;51.486;6.332;2023-03-23T08:48:36;100136.28;;;8.90;100.00
75640;BME280;64233;51.486;6.332;2023-03-23T08:51:04;100139.94;;;8.52;100.00
75640;BME280;64233;51.486;6.332;2023-03-23T08:53:30;100150.69;;;8.35;100.00
75640;BME280;64233;51.486;6.332;2023-03-23T08:55:56;100146.09;;;8.30;100.00
75640;BME280;64233;51.486;6.332;2023-03-23T08:58:22;100138.22;;;8.18;100.00
75640;BME280;64233;51.486;6.332;2023-03-23T09:00:48;100129.38;;;8.18;100.00
75640;BME280;64233;51.486;6.332;2023-03-23T09:03:13;100134.59;;;8.30;100.00
75640;BME280;64233;51.486;6.332;2023-03-23T09:05:38;100146.41;;;8.34;100.00
75640;BME280;64233;51.486;6.332;2023-03-23T09:08:08;100144.81;;;8.55;100.00
75640;BME280;64233;51.486;6.332;2023-03-23T09:10:33;100143.94;;;8.76;100.00
75640;BME280;64233;51.486;6.332;2023-03-23T09:12:59;100160.97;;;8.98;100.00
75640;BME280;64233;51.486;6.332;2023-03-23T09:15:24;100156.34;;;9.20;100.00
75640;BME280;64233;51.486;6.332;2023-03-23T09:17:52;100171.16;;;9.38;100.00
75640;BME280;64233;51.486;6.332;2023-03-23T09:20:20;100176.25;;;9.35;100.00
75640;BME280;64233;51.486;6.332;2023-03-23T09:22:48;100177.03;;;9.30;100.00
75640;BME280;64233;51.486;6.332;2023-03-23T09:25:15;100174.03;;;9.26;100.00
75640;BME280;64233;51.486;6.332;2023-03-23T09:27:44;100169.78;;;9.30;100.00
75640;BME280;64233;51.486;6.332;2023-03-23T09:30:13;100178.66;;;9.36;100.00
75640;BME280;64233;51.486;6.332;2023-03-23T09:32:39;100175.78;;;9.43;100.00
75640;BME280;64233;51.486;6.332;2023-03-23T09:35:07;100177.16;;;9.51;100.00
75640;BME280;64233;51.486;6.332;2023-03-23T09:37:34;100170.72;;;9.52;100.00
75640;BME280;64233;51.486;6.332;2023-03-23T09:40:02;100162.44;;;9.53;100.00
75640;BME280;64233;51.486;6.332;2023-03-23T09:45:09;100171.78;;;9.51;100.00
75640;BME280;64233;51.486;6.332;2023-03-23T09:50:19;100171.22;;;9.43;100.00
75640;BME280;64233;51.486;6.332;2023-03-23T09:53:00;100169.06;;;9.40;100.00
75640;BME280;64233;51.486;6.332;2023-03-23T09:55:34;100170.31;;;9.33;100.00
75640;BME280;64233;51.486;6.332;2023-03-23T09:58:16;100175.94;;;9.31;100.00
75640;BME280;64233;51.486;6.332;2023-03-23T10:00:46;100183.19;;;9.30;100.00
75640;BME280;64233;51.486;6.332;2023-03-23T10:03:16;100189.31;;;9.26;100.00
75640;BME280;64233;51.486;6.332;2023-03-23T10:05:50;100183.38;;;9.24;100.00
75640;BME280;64233;51.486;6.332;2023-03-23T10:08:19;100183.69;;;9.27;100.00
75640;BME280;64233;51.486;6.332;2023-03-23T10:16:04;100207.88;;;9.38;100.00
75640;BME280;64233;51.486;6.332;2023-03-23T10:18:41;100201.34;;;9.28;100.00
75640;BME280;64233;51.486;6.332;2023-03-23T10:21:11;100200.88;;;9.37;100.00
75640;BME280;64233;51.486;6.332;2023-03-23T10:24:00;100202.69;;;9.26;100.00
75640;BME280;64233;51.486;6.332;2023-03-23T10:26:38;100188.75;;;9.24;100.00
75640;BME280;64233;51.486;6.332;2023-03-23T10:31:41;100190.94;;;9.32;100.00
75640;BME280;64233;51.486;6.332;2023-03-23T10:34:12;100192.84;;;9.74;100.00
75640;BME280;64233;51.486;6.332;2023-03-23T10:36:51;100188.88;;;9.87;100.00
75640;BME280;64233;51.486;6.332;2023-03-23T10:39:21;100182.16;;;9.85;100.00
75640;BME280;64233;51.486;6.332;2023-03-23T10:41:47;100191.09;;;9.95;100.00
75640;BME280;64233;51.486;6.332;2023-03-23T10:44:24;100192.03;;;9.74;100.00
75640;BME280;64233;51.486;6.332;2023-03-23T10:47:03;100188.31;;;9.80;100.00
75640;BME280;64233;51.486;6.332;2023-03-23T10:49:34;100191.31;;;9.89;100.00
75640;BME280;64233;51.486;6.332;2023-03-23T10:52:23;100203.09;;;9.82;100.00
75640;BME280;64233;51.486;6.332;2023-03-23T10:55:13;100207.66;;;9.87;100.00
75640;BME280;64233;51.486;6.332;2023-03-23T10:57:42;100214.84;;;9.81;100.00
75640;BME280;64233;51.486;6.332;2023-03-23T11:00:22;100201.97;;;9.78;100.00
75640;BME280;64233;51.486;6.332;2023-03-23T11:03:03;100197.38;;;9.74;100.00
75640;BME280;64233;51.486;6.332;2023-03-23T11:05:40;100205.97;;;9.76;100.00
75640;BME280;64233;51.486;6.332;2023-03-23T11:08:20;100205.41;;;9.74;100.00
75640;BME280;64233;51.486;6.332;2023-03-23T11:10:53;100196.88;;;9.77;100.00
75640;BME280;64233;51.486;6.332;2023-03-23T11:13:20;100192.16;;;9.94;100.00
75640;BME280;64233;51.486;6.332;2023-03-23T11:15:48;100187.31;;;9.91;100.00
75640;BME280;64233;51.486;6.332;2023-03-23T11:18:22;100193.28;;;10.09;100.00
75640;BME280;64233;51.486;6.332;2023-03-23T11:20:52;100194.59;;;10.06;100.00
75640;BME280;64233;51.486;6.332;2023-03-23T11:25:57;100174.84;;;10.23;100.00
75640;BME280;64233;51.486;6.332;2023-03-23T11:28:29;100173.63;;;10.72;100.00
75640;BME280;64233;51.486;6.332;2023-03-23T11:30:57;100171.34;;;10.22;100.00
75640;BME280;64233;51.486;6.332;2023-03-23T11:33:23;100178.06;;;10.30;100.00
75640;BME280;64233;51.486;6.332;2023-03-23T11:35:52;100174.41;;;10.57;100.00
75640;BME280;64233;51.486;6.332;2023-03-23T11:38:20;100184.94;;;10.79;100.00
75640;BME280;64233;51.486;6.332;2023-03-23T11:40:50;100185.44;;;10.65;100.00
75640;BME280;64233;51.486;6.332;2023-03-23T11:43:21;100156.97;;;10.64;100.00
75640;BME280;64233;51.486;6.332;2023-03-23T11:46:03;100195.16;;;10.92;100.00
75640;BME280;64233;51.486;6.332;2023-03-23T11:48:56;100183.59;;;10.87;100.00
75640;BME280;64233;51.486;6.332;2023-03-23T11:51:37;100188.69;;;10.78;100.00
75640;BME280;64233;51.486;6.332;2023-03-23T11:54:23;100198.09;;;10.80;100.00
75640;BME280;64233;51.486;6.332;2023-03-23T11:56:51;100193.47;;;10.60;100.00
75640;BME280;64233;51.486;6.332;2023-03-23T11:59:26;100199.97;;;10.75;100.00
75640;BME280;64233;51.486;6.332;2023-03-23T12:04:57;100202.34;;;10.61;100.00
75640;BME280;64233;51.486;6.332;2023-03-23T12:13:00;100213.91;;;10.77;100.00
75640;BME280;64233;51.486;6.332;2023-03-23T12:15:43;100204.00;;;10.82;100.00
75640;BME280;64233;51.486;6.332;2023-03-23T12:18:23;100210.72;;;10.95;100.00
75640;BME280;64233;51.486;6.332;2023-03-23T12:21:22;100206.69;;;10.93;100.00
75640;BME280;64233;51.486;6.332;2023-03-23T12:24:22;100206.97;;;11.07;100.00
75640;BME280;64233;51.486;6.332;2023-03-23T12:27:14;100208.56;;;11.44;100.00
75640;BME280;64233;51.486;6.332;2023-03-23T12:29:51;100199.91;;;11.78;100.00
75640;BME280;64233;51.486;6.332;2023-03-23T12:35:20;100203.66;;;11.82;100.00
75640;BME280;64233;51.486;6.332;2023-03-23T12:40:43;100198.78;;;12.04;100.00
75640;BME280;64233;51.486;6.332;2023-03-23T12:48:34;100183.03;;;12.37;100.00
75640;BME280;64233;51.486;6.332;2023-03-23T12:51:31;100174.22;;;12.27;100.00
75640;BME280;64233;51.486;6.332;2023-03-23T12:54:11;100180.47;;;12.17;100.00
75640;BME280;64233;51.486;6.332;2023-03-23T12:57:00;100166.00;;;12.57;100.00
75640;BME280;64233;51.486;6.332;2023-03-23T12:59:39;100165.03;;;12.33;100.00
75640;BME280;64233;51.486;6.332;2023-03-23T13:02:27;100167.25;;;12.20;100.00
75640;BME280;64233;51.486;6.332;2023-03-23T13:05:33;100132.75;;;12.72;100.00
75640;BME280;64233;51.486;6.332;2023-03-23T13:08:31;100144.84;;;12.80;100.00
75640;BME280;64233;51.486;6.332;2023-03-23T13:11:03;100142.19;;;12.70;100.00
75640;BME280;64233;51.486;6.332;2023-03-23T13:13:48;100144.09;;;13.04;100.00
75640;BME280;64233;51.486;6.332;2023-03-23T13:19:19;100161.69;;;12.91;100.00
75640;BME280;64233;51.486;6.332;2023-03-23T13:22:00;100154.97;;;12.49;100.00
75640;BME280;64233;51.486;6.332;2023-03-23T13:24:29;100167.13;;;12.46;100.00
75640;BME280;64233;51.486;6.332;2023-03-23T13:26:56;100181.94;;;12.44;100.00
75640;BME280;64233;51.486;6.332;2023-03-23T13:29:24;100173.59;;;12.40;100.00
75640;BME280;64233;51.486;6.332;2023-03-23T13:31:50;100181.19;;;12.78;100.00
75640;BME280;64233;51.486;6.332;2023-03-23T13:34:22;100155.72;;;12.65;100.00
75640;BME280;64233;51.486;6.332;2023-03-23T13:36:59;100168.41;;;12.99;100.00
75640;BME280;64233;51.486;6.332;2023-03-23T13:39:49;100163.06;;;13.23;100.00
75640;BME280;64233;51.486;6.332;2023-03-23T13:47:27;100165.50;;;12.90;100.00
75640;BME280;64233;51.486;6.332;2023-03-23T13:49:58;100173.22;;;13.36;100.00
75640;BME280;64233;51.486;6.332;2023-03-23T13:52:38;100160.94;;;13.20;100.00
75640;BME280;64233;51.486;6.332;2023-03-23T13:55:21;100157.47;;;12.80;100.00